Strona główna
METAR-TAF:

METAR-TAF

Lotnisko :

Port lotniczy Sultan Aji Muhammad Sulaiman

Balikpapan, Indonezja

Szerokość geograficzna: 01-16-06S, Długość geograficzna: 116-53-40E, wysokość: 4 m

Aktualna obserwacja pogody

Raport powstał 49 minut temu, godzina 13:30 UTC
Wiatr 5 kt od wschodnio-północny wschód
Temperatura 29°C
Wilgotność 84%
Ciśnienie 1009 hPa
Widzialność: 9000 m
Mało chmury na wysokości 2000 ft

METAR: WALL 211330Z 07005KT 9000 FEW020 29/26 Q1009

czas: 21:19 (14:19 UTC)

Prognoza

Raport powstał 9 godziny i 19 minut temu, godzina 05:00 UTC
Prognoza ważna od 21 godzina 06 UTC do 22 godzina 12 UTC
Wiatr 5 kt od zachodnio-północny zachód
Widzialność 10 km lub więcej
Mało chmury na wysokości 2000 ft
Prawdopodobieństwo 40% :
Przejściowo
od 21 godzina 07 UTC do 21 godzina 11 UTC
Widzialność: 8000 m
Mało chmury na wysokości 1800 ft, Cumulonimbus.
Rozproszone chmury na wysokości 1800 ft
słaby przelotny opad deszczu

TAF: WALL 210500Z 2106/2212 30005KT 9999 FEW020 PROB40 TEMPO 2107/2111 8000 -SHRA FEW018CB SCT018

Obserwacja i prognoza pogody dla ponad 4000 lotnisk (raport METAR i TAF).

Dostępne stacje oznaczono żółtymi i czerwonymi punktami na mapie.

Najedź kursorem aby zobaczyć nazwę stacji.

Kliknij aby zobaczyć obserwacje i prognozy pogody.

Aby zmienić mapę: kliknij na zielony przycisk z czarnym krzyżykiem, aby powiększyć; na zielony przycisk z myślnikiem, aby pomniejszyć; na zielone strzałki, aby przejść do map sąsiednich.


METAR-TAF: